This is the latest recevied weather packets stored in our database for station/object KD9DOE. If no packets are shown the sender has not sent any weather packets the latest 10 day(s).
| Time | Temp. | Humidity | Pressure | Rain* | Wind** | Luminosity | Snow |
|---|---|---|---|---|---|---|---|
| 1777901268 | 16.11° C | 41% | 1000.8 hPa | 0 mm | - | 67 W/m² | - |
| 1777900965 | 15.56° C | 43% | 1000.9 hPa | 0 mm | - | 116 W/m² | - |
| 1777900662 | 15.56° C | 43% | 1001.1 hPa | 0 mm | - | 140 W/m² | - |
| 1777900359 | 15° C | 44% | 1001.3 hPa | 0 mm | - | 220 W/m² | - |
| 1777900057 | 15° C | 45% | 1001.1 hPa | 0 mm | - | 69 W/m² | - |
| 1777899752 | 14.44° C | 45% | 1001.2 hPa | 0 mm | - | 82 W/m² | - |
| 1777899450 | 14.44° C | 46% | 1001.2 hPa | 0 mm | - | 78 W/m² | - |
| 1777899148 | 13.89° C | 46% | 1001.2 hPa | 0 mm | - | 56 W/m² | - |
| 1777898845 | 13.89° C | 46% | 1001.2 hPa | 0 mm | - | 92 W/m² | - |
| 1777898542 | 13.89° C | 47% | 1001.3 hPa | 0 mm | - | 91 W/m² | - |
| 1777898240 | 13.89° C | 47% | 1001.3 hPa | 0 mm | - | 66 W/m² | - |
| 1777897937 | 13.33° C | 47% | 1001.4 hPa | 0 mm | - | 156 W/m² | - |
| 1777897632 | 12.78° C | 50% | 1001.3 hPa | 0 mm | - | 125 W/m² | - |
| 1777897328 | 12.22° C | 50% | 1001.4 hPa | 0 mm | - | 104 W/m² | - |
| 1777897024 | 12.22° C | 51% | 1001.5 hPa | 0 mm | - | 91 W/m² | - |
| 1777896722 | 12.22° C | 51% | 1001.5 hPa | 0 mm | - | 34 W/m² | - |
| 1777896419 | 11.67° C | 52% | 1001.7 hPa | 0 mm | - | 32 W/m² | - |
| 1777896116 | 11.67° C | 53% | 1001.7 hPa | 0 mm | - | 31 W/m² | - |
| 1777895814 | 11.11° C | 53% | 1001.6 hPa | 0 mm | - | 29 W/m² | - |
| 1777895511 | 11.11° C | 54% | 1001.5 hPa | 0 mm | - | 27 W/m² | - |
| 1777895209 | 10.56° C | 55% | 1001.6 hPa | 0 mm | - | 26 W/m² | - |
| 1777894906 | 10.56° C | 56% | 1001.5 hPa | 0 mm | - | 24 W/m² | - |
| 1777894603 | 10° C | 57% | 1001.2 hPa | 0 mm | - | 22 W/m² | - |
| 1777894300 | 10° C | 59% | 1001.4 hPa | 0 mm | - | 20 W/m² | - |
| 1777893998 | 10° C | 59% | 1001.4 hPa | 0 mm | - | 18 W/m² | - |
* Rain latest hour (hover to see other rain measurements)
** Current wind speed in m/s (hover to see current wind gust speed)